createdAt,value
2023-05-03T21:02:35.474Z,44.78
2023-05-03T21:05:48.159Z,39.50
2023-05-03T21:09:00.396Z,34.75
2023-05-03T21:12:13.878Z,33.10
2023-05-03T21:15:26.236Z,34.98
2023-05-03T21:18:38.465Z,32.38
2023-05-03T21:21:51.228Z,32.08
2023-05-03T21:25:03.850Z,29.35
2023-05-03T21:28:16.194Z,28.55
2023-05-03T21:31:28.710Z,30.23
2023-05-03T21:34:40.993Z,33.85
2023-05-03T21:37:54.022Z,29.65
2023-05-03T21:41:12.159Z,27.08
2023-05-03T21:44:24.365Z,29.00
2023-05-03T21:47:37.680Z,28.23
2023-05-03T21:50:50.142Z,30.45
2023-05-03T21:54:02.312Z,28.93
2023-05-03T21:57:14.288Z,29.80
2023-05-03T22:00:27.550Z,27.90
2023-05-03T22:03:40.273Z,32.65
2023-05-03T22:06:53.130Z,28.90
2023-05-03T22:10:06.281Z,29.53
2023-05-03T22:13:18.627Z,25.70
2023-05-03T22:16:30.884Z,27.38
2023-05-03T22:19:45.456Z,26.28
2023-05-03T22:22:58.112Z,28.83
2023-05-03T22:26:10.316Z,27.73
2023-05-03T22:29:22.735Z,32.23
2023-05-03T22:32:34.984Z,30.90
2023-05-03T22:35:47.254Z,33.03
2023-05-03T22:39:01.087Z,27.48
2023-05-03T22:42:13.676Z,27.95
2023-05-03T22:45:25.917Z,25.68
2023-05-03T22:48:38.015Z,24.85
2023-05-03T22:51:50.120Z,27.50
2023-05-03T22:55:05.104Z,26.60
2023-05-03T22:58:17.196Z,29.28
2023-05-03T23:01:31.316Z,27.85
2023-05-03T23:04:44.238Z,31.55
2023-05-03T23:07:56.481Z,30.20
2023-05-03T23:11:09.562Z,32.48
2023-05-03T23:14:21.952Z,23.75
2023-05-03T23:17:34.792Z,29.00
2023-05-03T23:20:46.940Z,26.68
2023-05-03T23:24:01.319Z,26.68
2023-05-03T23:27:13.506Z,24.68
2023-05-03T23:30:26.647Z,26.48
2023-05-03T23:33:39.354Z,26.35
2023-05-03T23:36:51.564Z,28.40
2023-05-03T23:40:04.573Z,32.65
2023-05-03T23:43:17.211Z,30.03
2023-05-03T23:46:29.462Z,30.40
2023-05-03T23:49:41.958Z,26.03
2023-05-03T23:52:54.345Z,27.30
2023-05-03T23:56:06.850Z,25.50
2023-05-03T23:59:18.918Z,25.88
